createdAt,value
2017-11-01T00:00:45.428Z,98947.25
2017-11-01T00:03:14.445Z,98949.03
2017-11-01T00:05:42.693Z,98950.61
2017-11-01T00:08:11.692Z,98947.10
2017-11-01T00:10:40.709Z,98943.81
2017-11-01T00:13:08.941Z,98952.43
2017-11-01T00:15:37.963Z,98954.58
2017-11-01T00:18:06.218Z,98953.08
2017-11-01T00:20:35.234Z,98953.61
2017-11-01T00:23:03.477Z,98963.32
2017-11-01T00:25:32.505Z,98952.33
2017-11-01T00:28:00.749Z,98951.03
2017-11-01T00:30:29.749Z,98945.17
2017-11-01T00:32:58.762Z,98940.98
2017-11-01T00:35:27.017Z,98942.08
2017-11-01T00:37:56.020Z,98942.98
2017-11-01T00:40:24.255Z,98936.34
2017-11-01T00:42:52.502Z,98931.87
2017-11-01T00:45:20.737Z,98934.42
2017-11-01T00:47:49.781Z,98929.04
2017-11-01T00:50:18.037Z,98929.77
2017-11-01T00:52:46.282Z,98930.33
2017-11-01T00:55:15.288Z,98931.17
2017-11-01T00:57:43.541Z,98931.70
2017-11-01T01:00:12.545Z,98930.92
2017-11-01T01:02:41.558Z,98926.50
2017-11-01T01:05:09.798Z,98935.06
2017-11-01T01:07:38.056Z,98925.82
2017-11-01T01:10:06.295Z,98923.09
2017-11-01T01:12:34.547Z,98920.69
2017-11-01T01:15:02.840Z,98920.98
2017-11-01T01:17:31.092Z,98916.02
2017-11-01T01:20:00.104Z,98918.49
2017-11-01T01:22:28.352Z,98919.41
2017-11-01T01:24:57.358Z,98920.01
2017-11-01T01:27:25.636Z,98919.11
2017-11-01T01:29:53.883Z,98924.09
2017-11-01T01:32:22.136Z,98922.42
2017-11-01T01:34:50.381Z,98924.14
2017-11-01T01:37:18.652Z,98912.57
2017-11-01T01:39:46.927Z,98918.52
2017-11-01T01:42:15.170Z,98915.22
2017-11-01T01:44:44.187Z,98914.66
2017-11-01T01:47:12.436Z,98913.25
2017-11-01T01:49:41.462Z,98911.98
2017-11-01T01:52:09.723Z,98913.00
2017-11-01T01:54:37.974Z,98908.63
2017-11-01T01:57:06.237Z,98905.47
2017-11-01T01:59:34.498Z,98896.17
2017-11-01T02:02:02.744Z,98899.66
2017-11-01T02:04:31.000Z,98892.78
2017-11-01T02:07:00.016Z,98892.83
2017-11-01T02:09:28.263Z,98891.53
2017-11-01T02:11:57.283Z,98895.63
2017-11-01T02:14:25.553Z,98892.91
2017-11-01T02:16:53.808Z,98882.54
2017-11-01T02:19:22.832Z,98887.20
2017-11-01T02:21:51.086Z,98876.30
2017-11-01T02:24:19.350Z,98871.55
2017-11-01T02:26:48.363Z,98865.61
2017-11-01T02:29:16.607Z,98870.29
2017-11-01T02:31:45.634Z,98867.70
2017-11-01T02:34:13.892Z,98858.80
2017-11-01T02:36:42.921Z,98861.45
2017-11-01T02:39:11.158Z,98860.85
2017-11-01T02:41:40.187Z,98855.61
2017-11-01T02:44:08.456Z,98857.27
2017-11-01T02:46:36.724Z,98856.72
2017-11-01T02:49:04.984Z,98856.43
2017-11-01T02:51:33.280Z,98856.53
2017-11-01T02:54:01.534Z,98861.11
2017-11-01T02:56:30.554Z,98860.03
2017-11-01T02:58:58.807Z,98862.50
2017-11-01T03:01:27.068Z,98854.16
2017-11-01T03:03:56.076Z,98849.56
2017-11-01T03:06:24.319Z,98853.76
2017-11-01T03:08:52.566Z,98849.21
2017-11-01T03:11:20.820Z,98858.53
2017-11-01T03:13:49.071Z,98858.45
2017-11-01T03:16:18.108Z,98852.59
2017-11-01T03:18:47.130Z,98845.30
2017-11-01T03:21:15.392Z,98846.75
2017-11-01T03:23:43.621Z,98847.63
2017-11-01T03:26:11.869Z,98836.61
2017-11-01T03:28:40.887Z,98836.46
2017-11-01T03:31:09.137Z,98829.99
2017-11-01T03:33:38.156Z,98830.36
2017-11-01T03:36:06.405Z,98832.58
2017-11-01T03:38:34.654Z,98833.97
2017-11-01T03:41:02.917Z,98839.84
2017-11-01T03:43:31.176Z,98837.35
2017-11-01T03:45:59.431Z,98841.83
2017-11-01T03:48:27.698Z,98848.92
2017-11-01T03:50:56.718Z,98837.68
2017-11-01T03:53:24.974Z,98831.69
2017-11-01T03:55:53.226Z,98831.90
2017-11-01T03:58:21.477Z,98831.84
2017-11-01T04:00:49.721Z,98831.30
2017-11-01T04:03:17.979Z,98833.68
2017-11-01T04:05:46.223Z,98829.92
2017-11-01T04:08:14.475Z,98826.38
2017-11-01T04:10:42.741Z,98830.90
2017-11-01T04:13:10.990Z,98827.14
2017-11-01T04:15:39.236Z,98824.88
2017-11-01T04:18:13.875Z,98817.02
2017-11-01T04:20:42.132Z,98811.80
2017-11-01T04:23:11.152Z,98819.52
2017-11-01T04:25:39.392Z,98807.81
2017-11-01T04:28:08.421Z,98814.09
2017-11-01T04:30:36.671Z,98809.22
2017-11-01T04:33:05.693Z,98804.28
2017-11-01T04:35:33.947Z,98803.34
2017-11-01T04:38:02.960Z,98805.52
2017-11-01T04:40:31.213Z,98802.86
2017-11-01T04:43:00.240Z,98800.03
2017-11-01T04:45:28.503Z,98804.18
2017-11-01T04:47:56.756Z,98799.78
2017-11-01T04:50:25.769Z,98792.19
2017-11-01T04:52:54.026Z,98793.81
2017-11-01T04:55:23.031Z,98801.33
2017-11-01T04:57:52.136Z,98792.17
2017-11-01T05:00:22.263Z,98792.02
2017-11-01T05:02:50.521Z,98790.59
2017-11-01T05:05:18.758Z,98792.60
2017-11-01T05:07:47.012Z,98786.00
2017-11-01T05:10:17.013Z,98784.11
2017-11-01T05:12:45.279Z,98779.53
2017-11-01T05:15:13.534Z,98781.42
2017-11-01T05:17:41.796Z,98778.14
2017-11-01T05:20:10.800Z,98777.78
2017-11-01T05:22:39.269Z,98786.72
2017-11-01T05:25:08.280Z,98780.58
2017-11-01T05:27:36.534Z,98782.74
2017-11-01T05:30:05.553Z,98796.37
2017-11-01T05:32:33.827Z,98793.84
2017-11-01T05:35:02.833Z,98789.77
2017-11-01T05:37:31.079Z,98789.33
2017-11-01T05:40:00.097Z,98788.69
2017-11-01T05:42:28.360Z,98785.72
2017-11-01T05:44:56.615Z,98788.30
2017-11-01T05:47:25.634Z,98781.00
2017-11-01T05:49:53.891Z,98781.48
2017-11-01T05:52:22.913Z,98787.84
2017-11-01T05:54:51.163Z,98785.84
2017-11-01T05:57:20.184Z,98790.95
2017-11-01T05:59:48.429Z,98798.41
2017-11-01T06:02:17.455Z,98808.30
2017-11-01T06:04:45.709Z,98803.13
2017-11-01T06:07:13.965Z,98803.06
2017-11-01T06:09:42.971Z,98808.62
2017-11-01T06:12:11.227Z,98806.30
2017-11-01T06:14:40.247Z,98803.66
2017-11-01T06:17:08.490Z,98813.34
2017-11-01T06:19:36.741Z,98815.95
2017-11-01T06:22:04.989Z,98818.05
2017-11-01T06:24:33.237Z,98815.52
2017-11-01T06:27:02.248Z,98817.94
2017-11-01T06:29:30.509Z,98826.29
2017-11-01T06:31:59.519Z,98827.68
2017-11-01T06:34:27.766Z,98827.64
2017-11-01T06:36:56.777Z,98832.64
2017-11-01T06:39:25.027Z,98838.74
2017-11-01T06:41:54.098Z,98837.51
2017-11-01T06:44:27.612Z,98836.55
2017-11-01T06:46:55.901Z,98834.09
2017-11-01T06:49:24.208Z,98844.13
2017-11-01T06:51:52.554Z,98847.00
2017-11-01T06:54:28.515Z,98848.13
2017-11-01T06:56:57.562Z,98842.26
2017-11-01T06:59:25.814Z,98847.75
2017-11-01T07:01:54.055Z,98857.02
2017-11-01T07:04:23.075Z,98863.88
2017-11-01T07:06:51.314Z,98862.45
2017-11-01T07:09:19.559Z,98861.72
2017-11-01T07:11:47.804Z,98857.77
2017-11-01T07:14:16.045Z,98864.17
2017-11-01T07:16:45.074Z,98855.63
2017-11-01T07:19:13.330Z,98864.23
2017-11-01T07:21:41.588Z,98863.14
2017-11-01T07:24:10.601Z,98868.18
2017-11-01T07:26:38.856Z,98873.48
2017-11-01T07:29:07.866Z,98870.02
2017-11-01T07:31:36.875Z,98865.16
2017-11-01T07:34:05.123Z,98869.38
2017-11-01T07:36:34.134Z,98870.15
2017-11-01T07:39:02.398Z,98862.76
2017-11-01T07:41:31.411Z,98864.97
2017-11-01T07:43:59.655Z,98860.91
2017-11-01T07:46:27.891Z,98865.27
2017-11-01T07:48:56.141Z,98871.47
2017-11-01T07:51:24.387Z,98864.21
2017-11-01T07:53:53.408Z,98874.41
2017-11-01T07:56:21.655Z,98875.31
2017-11-01T07:58:50.683Z,98874.05
2017-11-01T08:01:18.923Z,98871.83
2017-11-01T08:03:47.161Z,98867.81
2017-11-01T08:06:15.406Z,98871.40
2017-11-01T08:08:43.693Z,98869.38
2017-11-01T08:11:11.930Z,98872.97
2017-11-01T08:13:40.938Z,98865.81
2017-11-01T08:16:09.188Z,98863.95
2017-11-01T08:18:37.427Z,98856.48
2017-11-01T08:21:06.436Z,98858.75
2017-11-01T08:23:34.700Z,98851.36
2017-11-01T08:26:02.935Z,98857.61
2017-11-01T08:28:31.191Z,98866.06
2017-11-01T08:31:00.190Z,98859.98
2017-11-01T08:33:28.458Z,98863.90
2017-11-01T08:35:57.451Z,98852.48
2017-11-01T08:38:26.458Z,98852.88
2017-11-01T08:40:54.703Z,98872.06
2017-11-01T08:43:22.951Z,98862.75
2017-11-01T08:45:51.187Z,98854.11
2017-11-01T08:48:19.456Z,98855.33
2017-11-01T08:50:48.466Z,98842.55
2017-11-01T08:53:16.734Z,98839.34
2017-11-01T08:55:44.969Z,98841.41
2017-11-01T08:58:13.221Z,98850.16
2017-11-01T09:00:41.475Z,98853.78
2017-11-01T09:03:09.726Z,98856.15
2017-11-01T09:05:38.733Z,98864.95
2017-11-01T09:08:06.976Z,98860.06
2017-11-01T09:10:35.982Z,98879.56
2017-11-01T09:13:04.231Z,98876.08
2017-11-01T09:15:32.470Z,98862.18
2017-11-01T09:18:00.715Z,98866.53
2017-11-01T09:20:28.959Z,98867.05
2017-11-01T09:22:57.197Z,98869.21
2017-11-01T09:25:25.447Z,98867.14
2017-11-01T09:27:53.691Z,98861.62
2017-11-01T09:30:22.701Z,98860.58
2017-11-01T09:32:50.947Z,98859.99
2017-11-01T09:35:19.185Z,98868.64
2017-11-01T09:37:47.422Z,98864.80
2017-11-01T09:40:16.446Z,98861.70
2017-11-01T09:42:44.677Z,98865.87
2017-11-01T09:45:13.699Z,98861.81
2017-11-01T09:47:41.928Z,98857.87
2017-11-01T09:50:10.276Z,98862.42
2017-11-01T09:52:38.618Z,98861.79
2017-11-01T09:55:06.984Z,98856.23
2017-11-01T09:57:36.003Z,98865.55
2017-11-01T10:00:04.258Z,98858.54
2017-11-01T10:02:34.120Z,98859.55
2017-11-01T10:05:02.439Z,98853.25
2017-11-01T10:07:30.737Z,98856.27
2017-11-01T10:09:59.028Z,98854.08
2017-11-01T10:12:27.308Z,98844.59
2017-11-01T10:14:55.575Z,98852.75
2017-11-01T10:17:23.828Z,98843.20
2017-11-01T10:19:52.903Z,98844.53
2017-11-01T10:22:21.193Z,98844.95
2017-11-01T10:24:50.263Z,98845.20
2017-11-01T10:27:18.543Z,98831.12
2017-11-01T10:29:46.862Z,98836.10
2017-11-01T10:32:15.186Z,98829.83
2017-11-01T10:34:43.489Z,98834.03
2017-11-01T10:37:12.546Z,98832.71
2017-11-01T10:39:40.859Z,98829.01
2017-11-01T10:42:09.932Z,98822.77
2017-11-01T10:44:38.227Z,98820.16
2017-11-01T10:47:06.546Z,98821.14
2017-11-01T10:49:34.884Z,98809.30
2017-11-01T10:52:03.150Z,98805.45
2017-11-01T10:54:31.480Z,98809.06
2017-11-01T10:56:59.796Z,98800.06
2017-11-01T10:59:28.085Z,98808.07
2017-11-01T11:01:56.382Z,98807.23
2017-11-01T11:04:25.450Z,98792.81
2017-11-01T11:06:53.765Z,98793.59
2017-11-01T11:09:22.075Z,98798.29
2017-11-01T11:11:50.392Z,98788.20
2017-11-01T11:14:19.439Z,98787.08
2017-11-01T11:16:47.743Z,98791.34
2017-11-01T11:19:16.018Z,98775.70
2017-11-01T11:21:44.329Z,98777.75
2017-11-01T11:24:13.439Z,98771.01
2017-11-01T11:26:41.815Z,98767.72
2017-11-01T11:29:10.137Z,98767.42
2017-11-01T11:31:38.426Z,98767.73
2017-11-01T11:34:06.776Z,98756.80
2017-11-01T11:36:35.120Z,98761.12
2017-11-01T11:39:04.223Z,98751.28
2017-11-01T11:41:32.554Z,98753.65
2017-11-01T11:44:00.881Z,98741.72
2017-11-01T11:46:29.226Z,98745.38
2017-11-01T11:48:58.375Z,98738.95
2017-11-01T11:51:26.700Z,98726.53
2017-11-01T11:53:55.785Z,98739.09
2017-11-01T11:56:24.878Z,98732.38
2017-11-01T11:58:53.972Z,98736.95
2017-11-01T12:01:22.306Z,98739.66
2017-11-01T12:03:50.593Z,98741.75
2017-11-01T12:06:18.871Z,98730.74
2017-11-01T12:08:47.160Z,98737.06
2017-11-01T12:11:15.444Z,98734.44
2017-11-01T12:13:43.748Z,98724.06
2017-11-01T12:16:12.825Z,98729.81
2017-11-01T12:18:41.114Z,98725.12
2017-11-01T12:21:10.172Z,98717.64
2017-11-01T12:23:38.503Z,98723.39
2017-11-01T12:26:07.611Z,98728.25
2017-11-01T12:28:35.946Z,98715.30
2017-11-01T12:31:04.290Z,98717.00
2017-11-01T12:33:32.579Z,98699.88
2017-11-01T12:36:00.890Z,98696.88
2017-11-01T12:38:30.005Z,98689.75
2017-11-01T12:40:58.334Z,98683.77
2017-11-01T12:43:26.605Z,98674.20
2017-11-01T12:45:54.921Z,98682.46
2017-11-01T12:48:23.991Z,98693.16
2017-11-01T12:50:52.307Z,98680.41
2017-11-01T12:53:20.577Z,98685.64
2017-11-01T12:55:49.629Z,98676.23
2017-11-01T12:58:17.940Z,98673.34
2017-11-01T13:00:47.031Z,98674.29
2017-11-01T13:03:16.098Z,98672.95
2017-11-01T13:05:48.263Z,98672.30
2017-11-01T13:08:16.537Z,98675.28
2017-11-01T13:10:44.857Z,98675.41
2017-11-01T13:13:13.183Z,98675.03
2017-11-01T13:15:41.486Z,98677.56
2017-11-01T13:18:09.740Z,98679.36
2017-11-01T13:20:37.996Z,98677.61
2017-11-01T13:23:06.245Z,98687.24
2017-11-01T13:25:34.498Z,98688.20
2017-11-01T13:28:03.507Z,98684.11
2017-11-01T13:30:31.760Z,98677.52
2017-11-01T13:33:00.196Z,98680.14
2017-11-01T13:35:28.501Z,98670.58
2017-11-01T13:37:56.819Z,98680.77
2017-11-01T13:40:25.183Z,98676.98
2017-11-01T13:42:53.525Z,98656.95
2017-11-01T13:45:21.884Z,98668.89
2017-11-01T13:47:50.215Z,98662.70
2017-11-01T13:50:19.283Z,98661.56
2017-11-01T13:52:47.529Z,98666.06
2017-11-01T13:55:15.776Z,98672.05
2017-11-01T13:57:44.129Z,98660.91
2017-11-01T14:00:12.448Z,98664.61
2017-11-01T14:02:40.758Z,98662.44
2017-11-01T14:05:09.015Z,98663.47
2017-11-01T14:07:37.299Z,98659.80
2017-11-01T14:10:05.564Z,98658.70
2017-11-01T14:12:33.822Z,98656.99
2017-11-01T14:15:02.083Z,98654.17
2017-11-01T14:17:30.343Z,98649.98
2017-11-01T14:19:59.362Z,98652.87
2017-11-01T14:22:27.644Z,98642.47
2017-11-01T14:24:55.879Z,98641.39
2017-11-01T14:27:24.916Z,98641.35
2017-11-01T14:29:53.185Z,98646.27
2017-11-01T14:32:21.450Z,98642.91
2017-11-01T14:34:49.700Z,98645.20
2017-11-01T14:37:17.937Z,98637.19
2017-11-01T14:39:46.173Z,98636.45
2017-11-01T14:42:14.750Z,98635.68
2017-11-01T14:44:43.055Z,98630.09
2017-11-01T14:47:11.352Z,98639.25
2017-11-01T14:49:39.599Z,98640.08
2017-11-01T14:52:07.851Z,98635.07
2017-11-01T14:54:36.854Z,98650.16
2017-11-01T14:57:05.110Z,98648.58
2017-11-01T14:59:34.124Z,98639.59
2017-11-01T15:02:02.379Z,98645.05
2017-11-01T15:04:31.386Z,98649.33
2017-11-01T15:06:59.644Z,98646.75
2017-11-01T15:09:28.666Z,98644.99
2017-11-01T15:11:56.919Z,98647.16
2017-11-01T15:14:25.922Z,98639.02
2017-11-01T15:16:54.175Z,98638.03
2017-11-01T15:19:23.190Z,98639.59
2017-11-01T15:21:51.445Z,98645.61
2017-11-01T15:24:20.471Z,98639.21
2017-11-01T15:26:48.728Z,98636.63
2017-11-01T15:29:17.738Z,98637.04
2017-11-01T15:31:46.004Z,98641.59
2017-11-01T15:34:15.009Z,98639.66
2017-11-01T15:36:43.267Z,98640.90
2017-11-01T15:39:12.291Z,98639.22
2017-11-01T15:41:55.423Z,98637.81
2017-11-01T15:44:23.671Z,98631.73
2017-11-01T15:46:51.926Z,98630.02
2017-11-01T15:49:20.951Z,98631.58
2017-11-01T15:51:49.206Z,98628.98
2017-11-01T15:54:17.449Z,98622.08
2017-11-01T15:56:45.708Z,98619.44
2017-11-01T15:59:13.963Z,98618.45
2017-11-01T16:01:42.224Z,98619.59
2017-11-01T16:04:10.480Z,98610.17
2017-11-01T16:06:39.520Z,98604.59
2017-11-01T16:09:07.773Z,98609.14
2017-11-01T16:11:36.032Z,98615.56
2017-11-01T16:14:04.288Z,98616.41
2017-11-01T16:16:33.315Z,98615.81
2017-11-01T16:19:01.578Z,98606.34
2017-11-01T16:21:29.839Z,98604.73
2017-11-01T16:23:58.865Z,98604.25
2017-11-01T16:26:27.122Z,98612.11
2017-11-01T16:28:55.375Z,98606.80
2017-11-01T16:31:24.453Z,98615.94
2017-11-01T16:33:52.703Z,98612.81
2017-11-01T16:36:20.949Z,98613.97
2017-11-01T16:38:49.225Z,98607.00
2017-11-01T16:41:17.481Z,98605.09
2017-11-01T16:43:46.495Z,98603.12
2017-11-01T16:46:14.754Z,98601.95
2017-11-01T16:48:43.770Z,98606.25
2017-11-01T16:51:12.090Z,98610.95
2017-11-01T16:53:40.424Z,98607.31
2017-11-01T16:56:10.330Z,98604.75
2017-11-01T16:58:38.582Z,98609.84
2017-11-01T17:01:07.683Z,98608.38
2017-11-01T17:03:37.150Z,98607.04
2017-11-01T17:06:05.416Z,98604.86
2017-11-01T17:08:33.672Z,98605.84
2017-11-01T17:11:01.913Z,98600.97
2017-11-01T17:13:32.295Z,98613.52
2017-11-01T17:16:00.593Z,98618.12
2017-11-01T17:18:31.331Z,98617.13
2017-11-01T17:20:59.574Z,98619.94
2017-11-01T17:23:27.826Z,98617.05
2017-11-01T17:25:56.113Z,98621.58
2017-11-01T17:28:24.387Z,98625.27
2017-11-01T17:30:52.626Z,98622.78
2017-11-01T17:33:21.648Z,98618.47
2017-11-01T17:35:49.893Z,98618.17
2017-11-01T17:38:18.907Z,98613.95
2017-11-01T17:40:47.146Z,98619.66
2017-11-01T17:43:16.166Z,98624.56
2017-11-01T17:45:44.410Z,98619.68
2017-11-01T17:48:12.658Z,98621.30
2017-11-01T17:50:40.897Z,98612.24
2017-11-01T17:53:09.134Z,98619.86
2017-11-01T17:55:37.374Z,98627.38
2017-11-01T17:58:05.631Z,98635.09
2017-11-01T18:00:33.864Z,98636.11
2017-11-01T18:03:02.878Z,98630.65
2017-11-01T18:05:31.122Z,98625.55
2017-11-01T18:07:59.394Z,98628.65
2017-11-01T18:10:28.418Z,98629.27
2017-11-01T18:12:57.432Z,98623.32
2017-11-01T18:15:25.670Z,98620.44
2017-11-01T18:17:53.919Z,98619.08
2017-11-01T18:20:22.157Z,98620.44
2017-11-01T18:22:50.403Z,98621.69
2017-11-01T18:25:19.430Z,98616.82
2017-11-01T18:27:47.681Z,98609.92
2017-11-01T18:30:16.687Z,98606.08
2017-11-01T18:32:45.010Z,98610.98
2017-11-01T18:35:13.270Z,98606.75
2017-11-01T18:37:41.522Z,98606.34
2017-11-01T18:40:09.763Z,98602.79
2017-11-01T18:42:38.811Z,98606.32
2017-11-01T18:45:07.073Z,98602.18
2017-11-01T18:47:35.357Z,98592.89
2017-11-01T18:50:03.599Z,98595.84
2017-11-01T18:52:32.615Z,98584.50
2017-11-01T18:55:00.886Z,98586.95
2017-11-01T18:57:29.150Z,98583.41
2017-11-01T18:59:57.433Z,98585.46
2017-11-01T19:02:25.687Z,98583.48
2017-11-01T19:04:54.698Z,98580.17
2017-11-01T19:07:22.959Z,98575.13
2017-11-01T19:09:51.958Z,98572.36
2017-11-01T19:12:20.215Z,98573.99
2017-11-01T19:14:49.265Z,98573.59
2017-11-01T19:17:17.506Z,98579.67
2017-11-01T19:19:45.761Z,98569.09
2017-11-01T19:22:14.806Z,98558.86
2017-11-01T19:24:43.067Z,98549.02
2017-11-01T19:27:11.320Z,98556.78
2017-11-01T19:29:40.322Z,98552.55
2017-11-01T19:32:08.597Z,98544.97
2017-11-01T19:34:36.843Z,98547.95
2017-11-01T19:37:05.111Z,98548.10
2017-11-01T19:39:33.355Z,98548.92
2017-11-01T19:42:01.610Z,98548.94
2017-11-01T19:44:29.848Z,98549.62
2017-11-01T19:46:58.081Z,98555.80
2017-11-01T19:49:26.325Z,98561.45
2017-11-01T19:51:54.594Z,98562.74
2017-11-01T19:54:22.838Z,98557.73
2017-11-01T19:56:51.078Z,98548.85
2017-11-01T19:59:19.324Z,98550.81
2017-11-01T20:01:50.043Z,98514.98
2017-11-01T20:04:19.045Z,98541.11
2017-11-01T20:06:47.286Z,98536.67
2017-11-01T20:09:15.530Z,98540.02
2017-11-01T20:11:43.768Z,98531.89
2017-11-01T20:14:12.790Z,98527.86
2017-11-01T20:16:41.035Z,98517.66
2017-11-01T20:19:10.098Z,98523.98
2017-11-01T20:21:38.343Z,98524.73
2017-11-01T20:24:06.600Z,98521.06
2017-11-01T20:26:34.838Z,98514.31
2017-11-01T20:29:03.878Z,98517.38
2017-11-01T20:31:32.113Z,98510.66
2017-11-01T20:34:01.129Z,98517.38
2017-11-01T20:36:29.414Z,98518.53
2017-11-01T20:38:57.663Z,98510.70
2017-11-01T20:41:26.661Z,98515.11
2017-11-01T20:43:54.912Z,98514.03
2017-11-01T20:46:23.159Z,98516.44
2017-11-01T20:48:51.411Z,98511.64
2017-11-01T20:51:19.659Z,98511.56
2017-11-01T20:53:48.665Z,98507.02
2017-11-01T20:56:16.897Z,98508.61
2017-11-01T20:58:45.142Z,98500.38
2017-11-01T21:01:13.392Z,98489.45
2017-11-01T21:03:41.643Z,98487.76
2017-11-01T21:06:10.658Z,98485.27
2017-11-01T21:08:38.918Z,98490.41
2017-11-01T21:11:07.918Z,98485.26
2017-11-01T21:13:36.937Z,98483.89
2017-11-01T21:16:05.185Z,98483.38
2017-11-01T21:18:34.205Z,98483.87
2017-11-01T21:21:16.213Z,98488.64
2017-11-01T21:23:44.488Z,98479.65
2017-11-01T21:26:13.721Z,98471.94
2017-11-01T21:28:42.025Z,98473.45
2017-11-01T21:31:11.047Z,98467.06
2017-11-01T21:33:39.317Z,98463.17
2017-11-01T21:36:07.588Z,98460.64
2017-11-01T21:38:35.864Z,98468.34
2017-11-01T21:41:04.122Z,98465.47
2017-11-01T21:43:33.155Z,98458.02
2017-11-01T21:46:01.408Z,98453.14
2017-11-01T21:48:29.680Z,98458.20
2017-11-01T21:50:57.943Z,98452.38
2017-11-01T21:53:26.208Z,98449.09
2017-11-01T21:55:55.235Z,98447.00
2017-11-01T21:58:23.516Z,98449.19
2017-11-01T22:00:51.780Z,98445.34
2017-11-01T22:03:20.057Z,98444.16
2017-11-01T22:05:48.345Z,98440.61
2017-11-01T22:08:16.619Z,98442.66
2017-11-01T22:10:44.881Z,98440.02
2017-11-01T22:13:13.139Z,98440.69
2017-11-01T22:15:41.428Z,98434.14
2017-11-01T22:18:09.683Z,98429.91
2017-11-01T22:20:38.741Z,98433.26
2017-11-01T22:23:06.994Z,98434.50
2017-11-01T22:25:35.242Z,98423.94
2017-11-01T22:28:03.498Z,98418.44
2017-11-01T22:30:32.502Z,98418.91
2017-11-01T22:33:01.535Z,98413.80
2017-11-01T22:35:29.789Z,98409.27
2017-11-01T22:37:58.076Z,98409.75
2017-11-01T22:40:26.326Z,98404.34
2017-11-01T22:42:55.335Z,98403.63
2017-11-01T22:45:23.602Z,98400.72
2017-11-01T22:47:52.642Z,98400.99
2017-11-01T22:50:20.895Z,98398.44
2017-11-01T22:52:49.148Z,98395.98
2017-11-01T22:55:17.396Z,98390.06
2017-11-01T22:58:03.212Z,98389.62
2017-11-01T23:00:32.228Z,98375.25
2017-11-01T23:03:00.478Z,98374.94
2017-11-01T23:05:28.949Z,98375.92
2017-11-01T23:07:57.394Z,98377.66
2017-11-01T23:10:26.448Z,98370.42
2017-11-01T23:12:54.680Z,98366.96
2017-11-01T23:15:23.152Z,98369.95
2017-11-01T23:17:52.344Z,98372.16
2017-11-01T23:20:20.749Z,98365.59
2017-11-01T23:22:49.772Z,98365.20
2017-11-01T23:25:18.035Z,98365.84
2017-11-01T23:27:46.294Z,98365.30
2017-11-01T23:30:15.333Z,98365.61
2017-11-01T23:32:43.594Z,98367.82
2017-11-01T23:35:11.860Z,98368.91
2017-11-01T23:37:40.216Z,98366.55
2017-11-01T23:40:09.252Z,98357.30
2017-11-01T23:42:37.503Z,98360.34
2017-11-01T23:45:05.757Z,98359.17
2017-11-01T23:47:34.759Z,98352.84
2017-11-01T23:50:03.781Z,98357.60
2017-11-01T23:52:32.031Z,98357.27
2017-11-01T23:55:01.042Z,98356.06
2017-11-01T23:57:29.293Z,98346.34
2017-11-01T23:59:58.294Z,98344.78
